Hlavní strana
METAR-TAF:

METAR-TAF

Letiště :

Porto Alegre, Rio Grande do Sul, Brazílie

zeměpisná šířka: 30-00S, zeměpisná délka: 051-11W, výška: 3 m

Aktuální stav počasí

Zpráva byla vytvořena před 35 minutami, v 13:00 UTC
Západní vítr 12 kt, proměnlivý mezi západojihozápadním a západoseverozápadním
Teplota 16°C
Vlhkost vzduchu 63%
Tlak 1016 hPa
Viditelnost 10 km a více
Oblačno až skoro zataženo ve výšce 3500 ft

METAR: SBPA 261300Z 27012KT 240V300 9999 BKN035 16/09 Q1016

Čas: 10:35 (13:35 UTC)

Předpověď počasí

Zpráva byla vytvořena před 4 hodinami a 35 minutami, v 09:00 UTC
Předpověď platná od 26 v 12 UTC do 27 v 12 UTC
Západní vítr 13 kt
Viditelnost 10 km a více
Žádná oblačnost pod 1500 m, nevyskytují se cumulonimby.
Změna
od 26 v 14 UTC do 26 v 16 UTC
Viditelnost 10 km a více
Polojasno ve výšce 4000 ft
Změna
od 26 v 22 UTC do 26 v 24 UTC
Západní vítr 7 kt

TAF: SBPA 260900Z 2612/2712 27013KT CAVOK TX17/2617Z TN09/2709Z BECMG 2614/2616 9999 SCT040 BECMG 2622/2624 28007KT RMK PDG

Stav a předpovědi počasí z více než 4 000 letišť (zprávy METAR a TAF).

Červené a žluté tečky na mapě představují dostupné meteorologické stanice.

Když kurzor umístíte na tečku, zobrazí se název stanice.

Pak kliknutím zobrazíte stav a předpověď počasí.

Chcete-li změnit mapu, kliknutím na zelené tlačítko se znaménkem +mapu přiblížíte, kliknutím na zelené tlačítko se znaménkem – mapu oddálíte a kliknutím na zelené šipky přejdete na sousední mapy.


METAR-TAF: